Toledo, WA

4:07 AM PDT on September 02, 2015 (GMT -0700)
Town | | Change Station
CLOSE
Current Station
Personal Weather Station
Location: Toledo, WA
Elevation: 105 ft
Nearby Weather Stations

Elev 105 ft 46.44 °N, 122.85 °W | Updated 58 seconds ago

Rain
Rain
57.4 °F
Feels Like 57.4 °F
N
0.0
Wind Variable Wind from SW
Gusts 6.0 mph

Today
High -- | Low -- °F
--% Chance of Precip.
Yesterday
High -- | Low -- °F
Precip. -- in
6:32 AM 7:48 PM
Waning Gibbous, 81% visible
Pressure 29.85 in
Visibility 10.0 miles
Clouds Mostly Cloudy 5000 ft
Overcast 8000 ft
Dew Point 49 °F
Humidity 73%
Rainfall 0.09 in
Snow Depth Not available.
UV 0 out of 12
Pollen .50 out of 12
Air Quality Not available.
Flu Activity Not available.
METAR KCLS 021055Z AUTO 18004KT 10SM BKN050 OVC080 14/14 A2985 RMK A01
Pressure 29.85 in
Visibility 10.0 miles
Clouds Mostly Cloudy 5000 ft
Overcast 8000 ft
Dew Point 49 °F
Humidity 73%
Rainfall 0.09 in
Snow Depth Not available.
UV 0 out of 12
Pollen .50 out of 12
Air Quality Not available.
Flu Activity Not available.
METAR KCLS 021055Z AUTO 18004KT 10SM BKN050 OVC080 14/14 A2985 RMK A01

10-Day Weather Forecast

×

Almanac

Astronomy

Sep. 02, 2015 Rise Set
Actual Time
Civil Twilight
Nautical Twilight
Astronomical Twilight
Moon
Length of Visible Light
Length of Day
Tomorrow will be .
, % of the Moon is Illuminated

Today's Extremes

State Highs State Lows

Community

WunderPhotos

Upload Photos

1,851,731 photos uploaded!

WunderBlogs® & News

Nearby

Air Quality

  Air Quality AQ Index Pollutant
Not available.

Snow Depth

Station Depth Elevation

Earthquake Activity

City Distance Mag. Time & Date
Minimum magnitude displayed is 2.5.

Coastal Water Temperatures

Place Temperature

Stations

Nearby Weather Stations

Station Location Temp. Windchill Dew Point Humidity Wind Precip. Elev Updated Type